< < Back
Terminal Aerodrome Forecast


Current Version              Previous Versions:   1  2  3  4  5  6  7  8  9  

Terminal Aerodrome Forecast

108
FTUS42 KCHS 241726
TAFSAV
TAF
KSAV 241726Z 2418/2518 35008KT P6SM SCT025 SCT040
     FM242100 08008KT P6SM SCT030 SCT050
     FM250100 VRB03KT P6SM SCT250
     FM251000 VRB02KT 6SM BR SCT004
     FM251400 05007KT P6SM SCT020=

Latest METAR

370
SAUS80 KWBC 251400
MTRSAV
METAR KSAV 251353Z 01006KT 10SM FEW028 SCT038 SCT110 BKN250 27/23 A3008
RMK AO2 SLP186 T02670228


USA.gov is the U.S. government's official web portal to all federal, state and local government web resources and services.